sensor_id;sensor_type;location;lat;lon;timestamp;P1;durP1;ratioP1;P2;durP2;ratioP2
12715;SDS011;6422;49.938;9.124;2023-08-31T00:00:39;1.17;;;0.70;;
12715;SDS011;6422;49.938;9.124;2023-08-31T00:03:05;5.57;;;1.10;;
12715;SDS011;6422;49.938;9.124;2023-08-31T00:05:30;6.38;;;0.80;;
12715;SDS011;6422;49.938;9.124;2023-08-31T00:07:56;2.28;;;1.33;;
12715;SDS011;6422;49.938;9.124;2023-08-31T00:10:21;8.63;;;1.20;;
12715;SDS011;6422;49.938;9.124;2023-08-31T00:12:46;1.10;;;0.80;;
12715;SDS011;6422;49.938;9.124;2023-08-31T00:15:11;2.10;;;1.20;;
12715;SDS011;6422;49.938;9.124;2023-08-31T00:17:36;1.70;;;0.90;;
12715;SDS011;6422;49.938;9.124;2023-08-31T00:20:03;1.67;;;1.33;;
12715;SDS011;6422;49.938;9.124;2023-08-31T00:22:31;6.53;;;1.67;;
12715;SDS011;6422;49.938;9.124;2023-08-31T00:24:56;1.35;;;1.00;;
12715;SDS011;6422;49.938;9.124;2023-08-31T00:27:22;1.27;;;0.90;;
12715;SDS011;6422;49.938;9.124;2023-08-31T00:29:47;2.47;;;1.40;;
12715;SDS011;6422;49.938;9.124;2023-08-31T00:32:15;2.03;;;1.10;;
12715;SDS011;6422;49.938;9.124;2023-08-31T00:34:40;2.67;;;1.40;;
12715;SDS011;6422;49.938;9.124;2023-08-31T00:37:06;6.37;;;1.43;;
12715;SDS011;6422;49.938;9.124;2023-08-31T00:39:31;1.33;;;0.80;;
12715;SDS011;6422;49.938;9.124;2023-08-31T00:41:56;1.17;;;0.87;;
12715;SDS011;6422;49.938;9.124;2023-08-31T00:44:21;2.00;;;1.27;;
12715;SDS011;6422;49.938;9.124;2023-08-31T00:46:47;2.17;;;1.10;;
12715;SDS011;6422;49.938;9.124;2023-08-31T00:49:12;1.33;;;1.00;;
12715;SDS011;6422;49.938;9.124;2023-08-31T00:51:39;2.30;;;1.10;;
12715;SDS011;6422;49.938;9.124;2023-08-31T00:54:04;1.70;;;1.10;;
12715;SDS011;6422;49.938;9.124;2023-08-31T00:56:30;1.57;;;0.90;;
12715;SDS011;6422;49.938;9.124;2023-08-31T00:58:56;7.03;;;1.00;;
12715;SDS011;6422;49.938;9.124;2023-08-31T01:01:27;3.55;;;1.50;;
12715;SDS011;6422;49.938;9.124;2023-08-31T01:04:04;2.07;;;1.30;;
12715;SDS011;6422;49.938;9.124;2023-08-31T01:12:00;2.40;;;1.53;;
12715;SDS011;6422;49.938;9.124;2023-08-31T01:14:27;2.10;;;1.53;;
12715;SDS011;6422;49.938;9.124;2023-08-31T01:16:56;3.57;;;1.67;;
12715;SDS011;6422;49.938;9.124;2023-08-31T01:19:30;2.83;;;1.53;;
12715;SDS011;6422;49.938;9.124;2023-08-31T01:21:57;1.73;;;1.27;;
12715;SDS011;6422;49.938;9.124;2023-08-31T01:24:24;1.67;;;1.03;;
12715;SDS011;6422;49.938;9.124;2023-08-31T01:26:50;4.40;;;1.63;;
12715;SDS011;6422;49.938;9.124;2023-08-31T01:29:17;2.13;;;1.50;;
12715;SDS011;6422;49.938;9.124;2023-08-31T01:31:42;2.13;;;1.43;;
12715;SDS011;6422;49.938;9.124;2023-08-31T01:34:08;2.00;;;1.50;;
12715;SDS011;6422;49.938;9.124;2023-08-31T01:36:34;2.37;;;1.60;;
12715;SDS011;6422;49.938;9.124;2023-08-31T01:39:24;4.43;;;1.00;;
12715;SDS011;6422;49.938;9.124;2023-08-31T01:41:48;3.40;;;1.73;;
12715;SDS011;6422;49.938;9.124;2023-08-31T01:44:15;3.33;;;2.03;;
12715;SDS011;6422;49.938;9.124;2023-08-31T01:46:41;2.13;;;1.30;;
12715;SDS011;6422;49.938;9.124;2023-08-31T01:49:07;1.77;;;1.20;;
12715;SDS011;6422;49.938;9.124;2023-08-31T01:51:33;2.30;;;1.33;;
12715;SDS011;6422;49.938;9.124;2023-08-31T01:53:58;1.80;;;1.00;;
12715;SDS011;6422;49.938;9.124;2023-08-31T01:56:24;7.80;;;2.50;;
12715;SDS011;6422;49.938;9.124;2023-08-31T01:58:49;5.80;;;1.63;;
12715;SDS011;6422;49.938;9.124;2023-08-31T02:01:14;2.67;;;1.80;;
12715;SDS011;6422;49.938;9.124;2023-08-31T02:03:39;1.73;;;1.23;;
12715;SDS011;6422;49.938;9.124;2023-08-31T02:06:04;2.13;;;1.60;;
12715;SDS011;6422;49.938;9.124;2023-08-31T02:08:29;4.03;;;1.37;;
12715;SDS011;6422;49.938;9.124;2023-08-31T02:10:55;2.37;;;1.67;;
12715;SDS011;6422;49.938;9.124;2023-08-31T02:13:20;1.98;;;1.20;;
12715;SDS011;6422;49.938;9.124;2023-08-31T02:15:45;1.83;;;1.30;;
12715;SDS011;6422;49.938;9.124;2023-08-31T02:18:10;3.03;;;1.70;;
12715;SDS011;6422;49.938;9.124;2023-08-31T02:20:35;4.40;;;2.30;;
12715;SDS011;6422;49.938;9.124;2023-08-31T02:23:00;2.38;;;1.55;;
12715;SDS011;6422;49.938;9.124;2023-08-31T02:25:25;2.53;;;1.65;;
12715;SDS011;6422;49.938;9.124;2023-08-31T02:27:53;2.23;;;1.80;;
12715;SDS011;6422;49.938;9.124;2023-08-31T02:30:18;4.40;;;2.07;;
12715;SDS011;6422;49.938;9.124;2023-08-31T02:32:43;3.87;;;1.70;;
12715;SDS011;6422;49.938;9.124;2023-08-31T02:35:09;3.40;;;1.70;;
12715;SDS011;6422;49.938;9.124;2023-08-31T02:37:34;3.53;;;1.93;;
12715;SDS011;6422;49.938;9.124;2023-08-31T02:39:59;6.13;;;2.22;;
12715;SDS011;6422;49.938;9.124;2023-08-31T02:42:24;4.72;;;2.05;;
12715;SDS011;6422;49.938;9.124;2023-08-31T02:44:52;8.88;;;1.77;;
12715;SDS011;6422;49.938;9.124;2023-08-31T02:47:18;4.83;;;2.10;;
12715;SDS011;6422;49.938;9.124;2023-08-31T02:49:44;3.03;;;2.15;;
12715;SDS011;6422;49.938;9.124;2023-08-31T02:52:09;12.60;;;2.90;;
12715;SDS011;6422;49.938;9.124;2023-08-31T02:54:34;9.83;;;1.80;;
12715;SDS011;6422;49.938;9.124;2023-08-31T02:56:59;3.10;;;1.90;;
12715;SDS011;6422;49.938;9.124;2023-08-31T02:59:25;3.70;;;1.90;;
12715;SDS011;6422;49.938;9.124;2023-08-31T03:01:50;6.37;;;2.60;;
12715;SDS011;6422;49.938;9.124;2023-08-31T03:04:15;2.20;;;1.60;;
12715;SDS011;6422;49.938;9.124;2023-08-31T03:06:42;6.40;;;2.07;;
12715;SDS011;6422;49.938;9.124;2023-08-31T03:09:07;3.63;;;1.60;;
12715;SDS011;6422;49.938;9.124;2023-08-31T03:11:33;4.40;;;2.60;;
12715;SDS011;6422;49.938;9.124;2023-08-31T03:13:58;2.33;;;1.50;;
12715;SDS011;6422;49.938;9.124;2023-08-31T03:16:24;3.60;;;1.93;;
12715;SDS011;6422;49.938;9.124;2023-08-31T03:18:49;3.23;;;2.33;;
12715;SDS011;6422;49.938;9.124;2023-08-31T03:21:14;4.27;;;2.53;;
12715;SDS011;6422;49.938;9.124;2023-08-31T03:23:39;7.83;;;2.40;;
12715;SDS011;6422;49.938;9.124;2023-08-31T03:26:08;2.27;;;1.57;;
12715;SDS011;6422;49.938;9.124;2023-08-31T03:28:33;4.80;;;2.13;;
12715;SDS011;6422;49.938;9.124;2023-08-31T03:30:59;3.33;;;2.27;;
12715;SDS011;6422;49.938;9.124;2023-08-31T03:33:24;4.43;;;2.33;;
12715;SDS011;6422;49.938;9.124;2023-08-31T03:35:49;2.43;;;1.60;;
12715;SDS011;6422;49.938;9.124;2023-08-31T03:38:14;3.67;;;2.63;;
12715;SDS011;6422;49.938;9.124;2023-08-31T03:40:39;2.00;;;1.37;;
12715;SDS011;6422;49.938;9.124;2023-08-31T03:43:04;4.50;;;2.17;;
12715;SDS011;6422;49.938;9.124;2023-08-31T03:45:30;19.33;;;1.48;;
12715;SDS011;6422;49.938;9.124;2023-08-31T03:47:55;6.90;;;2.47;;
12715;SDS011;6422;49.938;9.124;2023-08-31T03:50:20;2.77;;;2.20;;
12715;SDS011;6422;49.938;9.124;2023-08-31T03:52:45;2.57;;;1.80;;
12715;SDS011;6422;49.938;9.124;2023-08-31T03:55:10;3.57;;;1.90;;
12715;SDS011;6422;49.938;9.124;2023-08-31T03:57:35;1.83;;;1.43;;
12715;SDS011;6422;49.938;9.124;2023-08-31T04:00:01;5.68;;;3.13;;
12715;SDS011;6422;49.938;9.124;2023-08-31T04:02:29;1.83;;;1.50;;
12715;SDS011;6422;49.938;9.124;2023-08-31T04:04:56;4.00;;;2.33;;
12715;SDS011;6422;49.938;9.124;2023-08-31T04:07:21;3.37;;;2.27;;
12715;SDS011;6422;49.938;9.124;2023-08-31T04:09:46;3.70;;;2.37;;
12715;SDS011;6422;49.938;9.124;2023-08-31T04:12:11;5.20;;;1.70;;
12715;SDS011;6422;49.938;9.124;2023-08-31T04:14:36;6.85;;;1.73;;
12715;SDS011;6422;49.938;9.124;2023-08-31T04:17:02;3.17;;;2.20;;
12715;SDS011;6422;49.938;9.124;2023-08-31T04:19:28;3.00;;;1.73;;
12715;SDS011;6422;49.938;9.124;2023-08-31T04:21:53;3.33;;;2.10;;
12715;SDS011;6422;49.938;9.124;2023-08-31T04:24:19;3.00;;;2.10;;
12715;SDS011;6422;49.938;9.124;2023-08-31T04:26:44;4.10;;;2.60;;
12715;SDS011;6422;49.938;9.124;2023-08-31T04:29:10;2.60;;;1.73;;
12715;SDS011;6422;49.938;9.124;2023-08-31T04:31:35;4.93;;;2.43;;
12715;SDS011;6422;49.938;9.124;2023-08-31T04:34:00;8.00;;;2.70;;
12715;SDS011;6422;49.938;9.124;2023-08-31T04:36:25;48.97;;;3.17;;
12715;SDS011;6422;49.938;9.124;2023-08-31T04:38:53;5.10;;;2.57;;
12715;SDS011;6422;49.938;9.124;2023-08-31T04:41:19;3.40;;;2.35;;
12715;SDS011;6422;49.938;9.124;2023-08-31T04:43:44;5.73;;;2.67;;
12715;SDS011;6422;49.938;9.124;2023-08-31T04:46:09;3.63;;;2.27;;
12715;SDS011;6422;49.938;9.124;2023-08-31T04:48:35;6.10;;;3.27;;
12715;SDS011;6422;49.938;9.124;2023-08-31T04:51:01;4.37;;;2.37;;
12715;SDS011;6422;49.938;9.124;2023-08-31T04:53:26;2.85;;;2.22;;
12715;SDS011;6422;49.938;9.124;2023-08-31T04:55:51;3.57;;;2.70;;
12715;SDS011;6422;49.938;9.124;2023-08-31T04:58:16;2.93;;;2.27;;
12715;SDS011;6422;49.938;9.124;2023-08-31T05:00:42;12.30;;;2.70;;
12715;SDS011;6422;49.938;9.124;2023-08-31T05:03:09;4.17;;;2.37;;
12715;SDS011;6422;49.938;9.124;2023-08-31T05:05:34;6.03;;;2.53;;
12715;SDS011;6422;49.938;9.124;2023-08-31T05:07:59;4.60;;;2.23;;
12715;SDS011;6422;49.938;9.124;2023-08-31T05:10:25;9.93;;;2.43;;
12715;SDS011;6422;49.938;9.124;2023-08-31T05:12:50;3.50;;;2.03;;
12715;SDS011;6422;49.938;9.124;2023-08-31T05:15:15;20.93;;;2.63;;
12715;SDS011;6422;49.938;9.124;2023-08-31T05:17:41;3.00;;;2.30;;
12715;SDS011;6422;49.938;9.124;2023-08-31T05:20:06;17.20;;;2.40;;
12715;SDS011;6422;49.938;9.124;2023-08-31T05:22:33;5.40;;;2.20;;
12715;SDS011;6422;49.938;9.124;2023-08-31T05:24:59;3.83;;;2.00;;
12715;SDS011;6422;49.938;9.124;2023-08-31T05:27:25;8.90;;;2.80;;
12715;SDS011;6422;49.938;9.124;2023-08-31T05:29:50;6.00;;;2.93;;
12715;SDS011;6422;49.938;9.124;2023-08-31T05:32:16;4.85;;;2.55;;
12715;SDS011;6422;49.938;9.124;2023-08-31T05:34:41;6.30;;;2.58;;
12715;SDS011;6422;49.938;9.124;2023-08-31T05:37:06;2.93;;;2.10;;
12715;SDS011;6422;49.938;9.124;2023-08-31T05:39:31;3.43;;;2.30;;
12715;SDS011;6422;49.938;9.124;2023-08-31T05:41:56;6.33;;;4.13;;
12715;SDS011;6422;49.938;9.124;2023-08-31T05:44:22;4.70;;;3.07;;
12715;SDS011;6422;49.938;9.124;2023-08-31T05:46:47;3.70;;;2.40;;
12715;SDS011;6422;49.938;9.124;2023-08-31T05:49:12;2.80;;;1.90;;
12715;SDS011;6422;49.938;9.124;2023-08-31T05:51:37;6.53;;;3.57;;
12715;SDS011;6422;49.938;9.124;2023-08-31T05:54:02;5.47;;;3.20;;
12715;SDS011;6422;49.938;9.124;2023-08-31T05:56:28;9.30;;;3.03;;
12715;SDS011;6422;49.938;9.124;2023-08-31T05:58:53;3.33;;;2.10;;
12715;SDS011;6422;49.938;9.124;2023-08-31T06:01:21;5.03;;;2.80;;
12715;SDS011;6422;49.938;9.124;2023-08-31T06:03:49;4.13;;;2.27;;
12715;SDS011;6422;49.938;9.124;2023-08-31T06:06:14;4.03;;;1.80;;
12715;SDS011;6422;49.938;9.124;2023-08-31T06:08:39;2.90;;;2.20;;
12715;SDS011;6422;49.938;9.124;2023-08-31T06:11:05;4.43;;;2.53;;
12715;SDS011;6422;49.938;9.124;2023-08-31T06:13:31;2.37;;;1.53;;
12715;SDS011;6422;49.938;9.124;2023-08-31T06:15:56;4.60;;;2.37;;
12715;SDS011;6422;49.938;9.124;2023-08-31T06:18:22;8.30;;;2.50;;
12715;SDS011;6422;49.938;9.124;2023-08-31T06:20:48;3.50;;;2.17;;
12715;SDS011;6422;49.938;9.124;2023-08-31T06:23:14;3.13;;;1.30;;
12715;SDS011;6422;49.938;9.124;2023-08-31T06:25:39;2.65;;;1.40;;
12715;SDS011;6422;49.938;9.124;2023-08-31T06:28:04;3.35;;;1.90;;
12715;SDS011;6422;49.938;9.124;2023-08-31T06:30:33;3.23;;;1.80;;
12715;SDS011;6422;49.938;9.124;2023-08-31T06:32:58;2.20;;;1.30;;
12715;SDS011;6422;49.938;9.124;2023-08-31T06:35:23;3.42;;;1.55;;
12715;SDS011;6422;49.938;9.124;2023-08-31T06:37:49;4.80;;;1.80;;
12715;SDS011;6422;49.938;9.124;2023-08-31T06:40:15;4.30;;;1.07;;
12715;SDS011;6422;49.938;9.124;2023-08-31T06:42:40;2.20;;;1.10;;
12715;SDS011;6422;49.938;9.124;2023-08-31T06:45:06;3.90;;;1.30;;
12715;SDS011;6422;49.938;9.124;2023-08-31T06:47:32;3.80;;;1.53;;
12715;SDS011;6422;49.938;9.124;2023-08-31T06:49:57;6.40;;;1.80;;
12715;SDS011;6422;49.938;9.124;2023-08-31T06:52:23;9.03;;;1.90;;
12715;SDS011;6422;49.938;9.124;2023-08-31T06:54:48;4.13;;;1.50;;
12715;SDS011;6422;49.938;9.124;2023-08-31T06:57:13;4.50;;;1.67;;
12715;SDS011;6422;49.938;9.124;2023-08-31T06:59:38;2.33;;;1.53;;
12715;SDS011;6422;49.938;9.124;2023-08-31T07:02:03;3.20;;;1.23;;
12715;SDS011;6422;49.938;9.124;2023-08-31T07:04:29;4.13;;;1.63;;
12715;SDS011;6422;49.938;9.124;2023-08-31T07:06:54;2.22;;;0.90;;
12715;SDS011;6422;49.938;9.124;2023-08-31T07:09:19;4.63;;;1.27;;
12715;SDS011;6422;49.938;9.124;2023-08-31T07:11:44;5.15;;;1.40;;
12715;SDS011;6422;49.938;9.124;2023-08-31T07:14:09;8.10;;;1.60;;
12715;SDS011;6422;49.938;9.124;2023-08-31T07:16:35;2.70;;;1.20;;
12715;SDS011;6422;49.938;9.124;2023-08-31T07:19:00;1.37;;;0.77;;
12715;SDS011;6422;49.938;9.124;2023-08-31T07:21:25;3.10;;;1.20;;
12715;SDS011;6422;49.938;9.124;2023-08-31T07:23:51;3.20;;;1.00;;
12715;SDS011;6422;49.938;9.124;2023-08-31T07:26:16;4.30;;;1.57;;
12715;SDS011;6422;49.938;9.124;2023-08-31T07:28:41;2.20;;;1.30;;
12715;SDS011;6422;49.938;9.124;2023-08-31T07:31:07;6.68;;;1.85;;
12715;SDS011;6422;49.938;9.124;2023-08-31T07:33:32;3.10;;;1.57;;
12715;SDS011;6422;49.938;9.124;2023-08-31T07:36:00;3.03;;;1.30;;
12715;SDS011;6422;49.938;9.124;2023-08-31T07:38:26;1.70;;;1.30;;
12715;SDS011;6422;49.938;9.124;2023-08-31T07:40:52;3.10;;;1.17;;
12715;SDS011;6422;49.938;9.124;2023-08-31T07:43:17;3.47;;;1.50;;
12715;SDS011;6422;49.938;9.124;2023-08-31T07:45:42;4.25;;;1.52;;
12715;SDS011;6422;49.938;9.124;2023-08-31T07:48:07;2.90;;;1.30;;
12715;SDS011;6422;49.938;9.124;2023-08-31T07:50:33;2.13;;;1.57;;
12715;SDS011;6422;49.938;9.124;2023-08-31T07:52:59;3.20;;;1.27;;
12715;SDS011;6422;49.938;9.124;2023-08-31T07:55:24;2.53;;;1.33;;
12715;SDS011;6422;49.938;9.124;2023-08-31T07:57:49;1.80;;;1.03;;
12715;SDS011;6422;49.938;9.124;2023-08-31T08:00:14;4.73;;;2.40;;
12715;SDS011;6422;49.938;9.124;2023-08-31T08:02:40;2.90;;;1.40;;
12715;SDS011;6422;49.938;9.124;2023-08-31T08:05:05;3.77;;;1.10;;
12715;SDS011;6422;49.938;9.124;2023-08-31T08:07:30;3.43;;;1.37;;
12715;SDS011;6422;49.938;9.124;2023-08-31T08:09:56;3.60;;;1.30;;
12715;SDS011;6422;49.938;9.124;2023-08-31T08:12:21;2.25;;;1.17;;
12715;SDS011;6422;49.938;9.124;2023-08-31T08:14:46;3.83;;;1.60;;
12715;SDS011;6422;49.938;9.124;2023-08-31T08:17:11;8.27;;;2.58;;
12715;SDS011;6422;49.938;9.124;2023-08-31T08:19:36;2.43;;;1.13;;
12715;SDS011;6422;49.938;9.124;2023-08-31T08:22:01;1.70;;;1.00;;
12715;SDS011;6422;49.938;9.124;2023-08-31T08:24:26;3.20;;;1.37;;
12715;SDS011;6422;49.938;9.124;2023-08-31T08:26:52;2.37;;;1.13;;
12715;SDS011;6422;49.938;9.124;2023-08-31T08:29:17;30.65;;;1.30;;
12715;SDS011;6422;49.938;9.124;2023-08-31T08:31:43;3.17;;;1.17;;
12715;SDS011;6422;49.938;9.124;2023-08-31T08:34:08;3.63;;;1.88;;
12715;SDS011;6422;49.938;9.124;2023-08-31T08:36:33;1.40;;;0.80;;
12715;SDS011;6422;49.938;9.124;2023-08-31T08:38:58;2.73;;;1.17;;
12715;SDS011;6422;49.938;9.124;2023-08-31T08:41:23;2.07;;;0.90;;
12715;SDS011;6422;49.938;9.124;2023-08-31T08:43:49;2.10;;;1.00;;
12715;SDS011;6422;49.938;9.124;2023-08-31T08:46:15;2.90;;;1.20;;
12715;SDS011;6422;49.938;9.124;2023-08-31T08:48:40;2.95;;;1.42;;
12715;SDS011;6422;49.938;9.124;2023-08-31T08:51:06;4.40;;;1.80;;
12715;SDS011;6422;49.938;9.124;2023-08-31T08:53:32;6.60;;;1.50;;
12715;SDS011;6422;49.938;9.124;2023-08-31T08:55:57;3.50;;;1.57;;
12715;SDS011;6422;49.938;9.124;2023-08-31T08:58:23;3.40;;;1.20;;
12715;SDS011;6422;49.938;9.124;2023-08-31T09:00:48;10.03;;;1.40;;
12715;SDS011;6422;49.938;9.124;2023-08-31T09:03:13;13.13;;;1.20;;
12715;SDS011;6422;49.938;9.124;2023-08-31T09:05:38;2.73;;;1.30;;
12715;SDS011;6422;49.938;9.124;2023-08-31T09:08:05;4.37;;;1.00;;
12715;SDS011;6422;49.938;9.124;2023-08-31T09:10:37;8.70;;;2.00;;
12715;SDS011;6422;49.938;9.124;2023-08-31T09:13:07;2.90;;;1.57;;
12715;SDS011;6422;49.938;9.124;2023-08-31T09:15:51;6.43;;;1.10;;
12715;SDS011;6422;49.938;9.124;2023-08-31T09:18:22;18.33;;;1.60;;
12715;SDS011;6422;49.938;9.124;2023-08-31T09:20:48;2.27;;;1.33;;
12715;SDS011;6422;49.938;9.124;2023-08-31T09:23:14;3.93;;;1.37;;
12715;SDS011;6422;49.938;9.124;2023-08-31T09:25:42;3.00;;;1.20;;
12715;SDS011;6422;49.938;9.124;2023-08-31T09:28:08;5.17;;;1.13;;
12715;SDS011;6422;49.938;9.124;2023-08-31T09:30:34;3.43;;;1.37;;
12715;SDS011;6422;49.938;9.124;2023-08-31T09:32:59;1.77;;;0.83;;
12715;SDS011;6422;49.938;9.124;2023-08-31T09:35:25;13.57;;;1.63;;
12715;SDS011;6422;49.938;9.124;2023-08-31T09:37:54;1.40;;;0.87;;
12715;SDS011;6422;49.938;9.124;2023-08-31T09:40:20;2.17;;;1.10;;
12715;SDS011;6422;49.938;9.124;2023-08-31T09:42:45;2.10;;;0.87;;
12715;SDS011;6422;49.938;9.124;2023-08-31T09:45:16;2.10;;;1.07;;
12715;SDS011;6422;49.938;9.124;2023-08-31T09:47:41;1.80;;;0.80;;
12715;SDS011;6422;49.938;9.124;2023-08-31T09:50:07;6.50;;;1.77;;
12715;SDS011;6422;49.938;9.124;2023-08-31T09:52:32;4.17;;;1.17;;
12715;SDS011;6422;49.938;9.124;2023-08-31T09:54:58;1.80;;;0.80;;
12715;SDS011;6422;49.938;9.124;2023-08-31T09:57:23;2.60;;;1.50;;
12715;SDS011;6422;49.938;9.124;2023-08-31T09:59:49;5.43;;;1.43;;
12715;SDS011;6422;49.938;9.124;2023-08-31T10:02:14;2.63;;;1.37;;
12715;SDS011;6422;49.938;9.124;2023-08-31T10:04:40;2.43;;;1.10;;
12715;SDS011;6422;49.938;9.124;2023-08-31T10:07:06;4.70;;;1.60;;
12715;SDS011;6422;49.938;9.124;2023-08-31T10:09:32;1.63;;;1.00;;
12715;SDS011;6422;49.938;9.124;2023-08-31T10:11:57;1.70;;;0.90;;
12715;SDS011;6422;49.938;9.124;2023-08-31T10:14:23;3.00;;;1.27;;
12715;SDS011;6422;49.938;9.124;2023-08-31T10:16:48;24.43;;;1.63;;
12715;SDS011;6422;49.938;9.124;2023-08-31T10:19:14;2.20;;;1.17;;
12715;SDS011;6422;49.938;9.124;2023-08-31T10:21:40;2.50;;;1.10;;
12715;SDS011;6422;49.938;9.124;2023-08-31T10:24:05;1.60;;;0.77;;
12715;SDS011;6422;49.938;9.124;2023-08-31T10:26:33;1.60;;;0.80;;
12715;SDS011;6422;49.938;9.124;2023-08-31T10:28:58;6.57;;;1.30;;
12715;SDS011;6422;49.938;9.124;2023-08-31T10:31:27;7.23;;;1.47;;
12715;SDS011;6422;49.938;9.124;2023-08-31T10:33:56;2.63;;;1.40;;
12715;SDS011;6422;49.938;9.124;2023-08-31T10:39:19;3.87;;;1.70;;
12715;SDS011;6422;49.938;9.124;2023-08-31T10:41:54;1.30;;;0.70;;
12715;SDS011;6422;49.938;9.124;2023-08-31T10:44:20;2.13;;;0.87;;
12715;SDS011;6422;49.938;9.124;2023-08-31T10:46:46;5.67;;;1.10;;
12715;SDS011;6422;49.938;9.124;2023-08-31T10:49:13;4.37;;;1.00;;
12715;SDS011;6422;49.938;9.124;2023-08-31T10:51:46;2.03;;;0.93;;
12715;SDS011;6422;49.938;9.124;2023-08-31T10:54:21;3.10;;;1.10;;
12715;SDS011;6422;49.938;9.124;2023-08-31T11:02:06;3.57;;;1.13;;
12715;SDS011;6422;49.938;9.124;2023-08-31T11:04:38;1.93;;;1.03;;
12715;SDS011;6422;49.938;9.124;2023-08-31T11:07:17;3.20;;;1.13;;
12715;SDS011;6422;49.938;9.124;2023-08-31T11:09:43;3.07;;;1.00;;
12715;SDS011;6422;49.938;9.124;2023-08-31T11:12:08;2.77;;;1.00;;
12715;SDS011;6422;49.938;9.124;2023-08-31T11:14:34;4.97;;;1.10;;
12715;SDS011;6422;49.938;9.124;2023-08-31T11:16:59;2.27;;;0.90;;
12715;SDS011;6422;49.938;9.124;2023-08-31T11:19:25;2.13;;;1.07;;
12715;SDS011;6422;49.938;9.124;2023-08-31T11:21:51;1.97;;;0.90;;
12715;SDS011;6422;49.938;9.124;2023-08-31T11:24:16;2.00;;;1.30;;
12715;SDS011;6422;49.938;9.124;2023-08-31T11:26:42;4.20;;;1.33;;
12715;SDS011;6422;49.938;9.124;2023-08-31T11:29:07;1.90;;;0.80;;
12715;SDS011;6422;49.938;9.124;2023-08-31T11:31:33;1.77;;;0.90;;
12715;SDS011;6422;49.938;9.124;2023-08-31T11:34:04;1.83;;;1.00;;
12715;SDS011;6422;49.938;9.124;2023-08-31T11:36:29;5.50;;;1.20;;
12715;SDS011;6422;49.938;9.124;2023-08-31T11:38:54;3.47;;;1.30;;
12715;SDS011;6422;49.938;9.124;2023-08-31T11:41:19;2.03;;;0.90;;
12715;SDS011;6422;49.938;9.124;2023-08-31T11:43:44;4.00;;;1.63;;
12715;SDS011;6422;49.938;9.124;2023-08-31T11:46:10;1.80;;;1.03;;
12715;SDS011;6422;49.938;9.124;2023-08-31T11:48:35;2.17;;;1.10;;
12715;SDS011;6422;49.938;9.124;2023-08-31T11:51:01;3.63;;;1.30;;
12715;SDS011;6422;49.938;9.124;2023-08-31T11:53:27;1.97;;;1.20;;
12715;SDS011;6422;49.938;9.124;2023-08-31T11:55:52;1.80;;;0.90;;
12715;SDS011;6422;49.938;9.124;2023-08-31T11:58:18;2.50;;;1.00;;
12715;SDS011;6422;49.938;9.124;2023-08-31T12:00:43;2.77;;;1.00;;
12715;SDS011;6422;49.938;9.124;2023-08-31T12:03:09;3.03;;;0.90;;
12715;SDS011;6422;49.938;9.124;2023-08-31T12:05:55;5.03;;;1.10;;
12715;SDS011;6422;49.938;9.124;2023-08-31T12:08:25;5.90;;;1.77;;
12715;SDS011;6422;49.938;9.124;2023-08-31T12:10:53;1.40;;;0.80;;
12715;SDS011;6422;49.938;9.124;2023-08-31T12:13:19;2.07;;;1.10;;
12715;SDS011;6422;49.938;9.124;2023-08-31T12:15:44;1.70;;;0.90;;
12715;SDS011;6422;49.938;9.124;2023-08-31T12:18:10;2.13;;;0.90;;
12715;SDS011;6422;49.938;9.124;2023-08-31T12:20:42;5.33;;;1.63;;
12715;SDS011;6422;49.938;9.124;2023-08-31T12:23:08;1.70;;;0.97;;
12715;SDS011;6422;49.938;9.124;2023-08-31T12:25:34;1.30;;;0.70;;
12715;SDS011;6422;49.938;9.124;2023-08-31T12:28:00;3.80;;;1.60;;
12715;SDS011;6422;49.938;9.124;2023-08-31T12:30:25;1.63;;;0.88;;
12715;SDS011;6422;49.938;9.124;2023-08-31T12:32:50;3.80;;;1.23;;
12715;SDS011;6422;49.938;9.124;2023-08-31T12:35:17;1.50;;;0.77;;
12715;SDS011;6422;49.938;9.124;2023-08-31T12:37:42;2.23;;;1.10;;
12715;SDS011;6422;49.938;9.124;2023-08-31T12:40:07;2.57;;;1.03;;
12715;SDS011;6422;49.938;9.124;2023-08-31T12:42:34;4.30;;;1.10;;
12715;SDS011;6422;49.938;9.124;2023-08-31T12:45:00;2.70;;;1.43;;
12715;SDS011;6422;49.938;9.124;2023-08-31T12:47:25;2.30;;;1.07;;
12715;SDS011;6422;49.938;9.124;2023-08-31T12:49:50;1.97;;;1.00;;
12715;SDS011;6422;49.938;9.124;2023-08-31T12:52:15;1.50;;;0.70;;
12715;SDS011;6422;49.938;9.124;2023-08-31T12:54:40;11.53;;;1.00;;
12715;SDS011;6422;49.938;9.124;2023-08-31T12:57:05;2.13;;;0.97;;
12715;SDS011;6422;49.938;9.124;2023-08-31T12:59:31;1.50;;;0.80;;
12715;SDS011;6422;49.938;9.124;2023-08-31T13:01:56;1.33;;;0.70;;
12715;SDS011;6422;49.938;9.124;2023-08-31T13:04:22;1.60;;;0.83;;
12715;SDS011;6422;49.938;9.124;2023-08-31T13:06:47;1.48;;;0.85;;
12715;SDS011;6422;49.938;9.124;2023-08-31T13:09:13;2.80;;;1.17;;
12715;SDS011;6422;49.938;9.124;2023-08-31T13:11:38;2.43;;;1.10;;
12715;SDS011;6422;49.938;9.124;2023-08-31T13:14:03;2.28;;;1.10;;
12715;SDS011;6422;49.938;9.124;2023-08-31T13:16:28;3.00;;;1.30;;
12715;SDS011;6422;49.938;9.124;2023-08-31T13:18:53;2.72;;;1.17;;
12715;SDS011;6422;49.938;9.124;2023-08-31T13:21:18;1.60;;;0.85;;
12715;SDS011;6422;49.938;9.124;2023-08-31T13:23:44;2.93;;;1.13;;
12715;SDS011;6422;49.938;9.124;2023-08-31T13:26:09;1.80;;;0.93;;
12715;SDS011;6422;49.938;9.124;2023-08-31T13:28:35;1.90;;;0.93;;
12715;SDS011;6422;49.938;9.124;2023-08-31T13:31:00;1.83;;;1.07;;
12715;SDS011;6422;49.938;9.124;2023-08-31T13:33:26;1.67;;;0.90;;
12715;SDS011;6422;49.938;9.124;2023-08-31T13:35:53;3.00;;;1.17;;
12715;SDS011;6422;49.938;9.124;2023-08-31T13:38:18;4.50;;;1.00;;
12715;SDS011;6422;49.938;9.124;2023-08-31T13:40:43;2.47;;;1.37;;
12715;SDS011;6422;49.938;9.124;2023-08-31T13:43:09;2.03;;;1.00;;
12715;SDS011;6422;49.938;9.124;2023-08-31T13:45:34;1.37;;;0.83;;
12715;SDS011;6422;49.938;9.124;2023-08-31T13:47:59;2.50;;;1.30;;
12715;SDS011;6422;49.938;9.124;2023-08-31T13:50:29;3.63;;;1.00;;
12715;SDS011;6422;49.938;9.124;2023-08-31T13:52:54;3.53;;;1.63;;
12715;SDS011;6422;49.938;9.124;2023-08-31T13:55:19;4.60;;;0.90;;
12715;SDS011;6422;49.938;9.124;2023-08-31T13:57:45;11.80;;;1.67;;
12715;SDS011;6422;49.938;9.124;2023-08-31T14:00:10;2.33;;;1.03;;
12715;SDS011;6422;49.938;9.124;2023-08-31T14:02:36;3.73;;;1.07;;
12715;SDS011;6422;49.938;9.124;2023-08-31T14:05:02;3.33;;;1.37;;
12715;SDS011;6422;49.938;9.124;2023-08-31T14:07:27;3.00;;;1.00;;
12715;SDS011;6422;49.938;9.124;2023-08-31T14:09:52;3.17;;;1.17;;
12715;SDS011;6422;49.938;9.124;2023-08-31T14:12:18;2.23;;;1.20;;
12715;SDS011;6422;49.938;9.124;2023-08-31T14:14:43;1.43;;;0.83;;
12715;SDS011;6422;49.938;9.124;2023-08-31T14:17:11;9.20;;;1.63;;
12715;SDS011;6422;49.938;9.124;2023-08-31T14:19:36;5.20;;;1.47;;
12715;SDS011;6422;49.938;9.124;2023-08-31T14:22:01;2.47;;;1.23;;
12715;SDS011;6422;49.938;9.124;2023-08-31T14:24:28;3.40;;;1.33;;
12715;SDS011;6422;49.938;9.124;2023-08-31T14:26:53;2.00;;;1.00;;
12715;SDS011;6422;49.938;9.124;2023-08-31T14:29:19;5.20;;;1.60;;
12715;SDS011;6422;49.938;9.124;2023-08-31T14:31:44;4.33;;;1.63;;
12715;SDS011;6422;49.938;9.124;2023-08-31T14:34:09;3.60;;;1.50;;
12715;SDS011;6422;49.938;9.124;2023-08-31T14:36:34;8.40;;;1.63;;
12715;SDS011;6422;49.938;9.124;2023-08-31T14:38:59;7.63;;;1.65;;
12715;SDS011;6422;49.938;9.124;2023-08-31T14:41:25;7.00;;;1.83;;
12715;SDS011;6422;49.938;9.124;2023-08-31T14:43:50;1.63;;;0.93;;
12715;SDS011;6422;49.938;9.124;2023-08-31T14:46:15;1.80;;;1.03;;
12715;SDS011;6422;49.938;9.124;2023-08-31T14:48:40;1.93;;;1.10;;
12715;SDS011;6422;49.938;9.124;2023-08-31T14:51:05;1.93;;;0.97;;
12715;SDS011;6422;49.938;9.124;2023-08-31T14:53:30;5.53;;;1.67;;
12715;SDS011;6422;49.938;9.124;2023-08-31T14:55:56;2.70;;;1.30;;
12715;SDS011;6422;49.938;9.124;2023-08-31T14:58:21;3.10;;;1.33;;
12715;SDS011;6422;49.938;9.124;2023-08-31T15:00:46;3.20;;;1.13;;
12715;SDS011;6422;49.938;9.124;2023-08-31T15:03:11;4.03;;;1.50;;
12715;SDS011;6422;49.938;9.124;2023-08-31T15:05:37;6.23;;;1.20;;